sensor_id;sensor_type;location;lat;lon;timestamp;pressure;altitude;pressure_sealevel;temperature;humidity
50592;BME280;36548;50.506;30.834;2022-09-13T00:00:19;99152.17;;;15.89;69.74
50592;BME280;36548;50.506;30.834;2022-09-13T00:01:33;99152.84;;;15.91;69.85
50592;BME280;36548;50.506;30.834;2022-09-13T00:02:43;99153.58;;;15.75;70.24
50592;BME280;36548;50.506;30.834;2022-09-13T00:03:58;99143.43;;;15.77;70.39
50592;BME280;36548;50.506;30.834;2022-09-13T00:05:08;99153.30;;;15.60;70.67
50592;BME280;36548;50.506;30.834;2022-09-13T00:06:20;99151.53;;;15.50;70.83
50592;BME280;36548;50.506;30.834;2022-09-13T00:07:36;99157.66;;;15.53;71.04
50592;BME280;36548;50.506;30.834;2022-09-13T00:08:47;99152.50;;;15.41;71.17
50592;BME280;36548;50.506;30.834;2022-09-13T00:09:57;99153.98;;;15.36;70.97
50592;BME280;36548;50.506;30.834;2022-09-13T00:11:32;99143.58;;;15.49;71.54
50592;BME280;36548;50.506;30.834;2022-09-13T00:12:42;99150.95;;;15.39;71.23
50592;BME280;36548;50.506;30.834;2022-09-13T00:13:58;99132.31;;;15.54;71.56
50592;BME280;36548;50.506;30.834;2022-09-13T00:15:09;99148.31;;;15.47;71.24
50592;BME280;36548;50.506;30.834;2022-09-13T00:16:22;99152.34;;;15.43;70.92
50592;BME280;36548;50.506;30.834;2022-09-13T00:17:38;99137.07;;;15.60;71.18
50592;BME280;36548;50.506;30.834;2022-09-13T00:18:47;99142.27;;;15.53;71.53
50592;BME280;36548;50.506;30.834;2022-09-13T00:20:03;99141.86;;;15.66;71.08
50592;BME280;36548;50.506;30.834;2022-09-13T00:21:17;99143.64;;;15.57;71.08
50592;BME280;36548;50.506;30.834;2022-09-13T00:22:34;99145.41;;;15.66;70.72
50592;BME280;36548;50.506;30.834;2022-09-13T00:23:46;99143.35;;;15.60;71.22
50592;BME280;36548;50.506;30.834;2022-09-13T00:24:56;99144.86;;;15.63;70.96
50592;BME280;36548;50.506;30.834;2022-09-13T00:26:08;99146.73;;;15.62;70.62
50592;BME280;36548;50.506;30.834;2022-09-13T00:27:19;99141.81;;;15.58;70.51
50592;BME280;36548;50.506;30.834;2022-09-13T00:28:55;99140.94;;;15.57;70.60
50592;BME280;36548;50.506;30.834;2022-09-13T00:30:12;99148.66;;;15.70;70.70
50592;BME280;36548;50.506;30.834;2022-09-13T00:31:23;99148.70;;;15.52;70.65
50592;BME280;36548;50.506;30.834;2022-09-13T00:32:39;99141.86;;;15.66;71.14
50592;BME280;36548;50.506;30.834;2022-09-13T00:33:49;99146.06;;;15.60;71.61
50592;BME280;36548;50.506;30.834;2022-09-13T00:35:06;99146.24;;;15.67;71.03
50592;BME280;36548;50.506;30.834;2022-09-13T00:36:16;99146.13;;;15.50;71.03
50592;BME280;36548;50.506;30.834;2022-09-13T00:37:28;99148.70;;;15.52;71.01
50592;BME280;36548;50.506;30.834;2022-09-13T00:39:04;99142.86;;;15.65;71.21
50592;BME280;36548;50.506;30.834;2022-09-13T00:40:13;99148.99;;;15.49;71.13
50592;BME280;36548;50.506;30.834;2022-09-13T00:41:22;99151.63;;;15.41;71.32
50592;BME280;36548;50.506;30.834;2022-09-13T00:42:38;99141.10;;;15.56;71.73
50592;BME280;36548;50.506;30.834;2022-09-13T00:43:53;99151.34;;;15.44;71.68
50592;BME280;36548;50.506;30.834;2022-09-13T00:45:14;99147.25;;;15.40;71.95
50592;BME280;36548;50.506;30.834;2022-09-13T00:48:00;99144.33;;;15.33;72.40
50592;BME280;36548;50.506;30.834;2022-09-13T00:49:17;99153.69;;;15.21;72.64
50592;BME280;36548;50.506;30.834;2022-09-13T00:50:34;99143.69;;;15.39;72.86
50592;BME280;36548;50.506;30.834;2022-09-13T00:51:48;99147.35;;;15.30;72.82
50592;BME280;36548;50.506;30.834;2022-09-13T00:53:19;99149.48;;;15.44;73.07
50592;BME280;36548;50.506;30.834;2022-09-13T00:54:34;99150.89;;;15.30;72.57
50592;BME280;36548;50.506;30.834;2022-09-13T00:55:48;99152.44;;;15.33;72.58
50592;BME280;36548;50.506;30.834;2022-09-13T00:57:00;99146.70;;;15.36;72.71
50592;BME280;36548;50.506;30.834;2022-09-13T00:58:32;99144.91;;;15.45;72.71
50592;BME280;36548;50.506;30.834;2022-09-13T00:59:46;99148.51;;;15.27;72.66
50592;BME280;36548;50.506;30.834;2022-09-13T01:01:02;99143.48;;;15.32;72.77
50592;BME280;36548;50.506;30.834;2022-09-13T01:02:14;99143.64;;;15.13;73.28
50592;BME280;36548;50.506;30.834;2022-09-13T01:03:26;99147.44;;;15.20;73.51
50592;BME280;36548;50.506;30.834;2022-09-13T01:04:43;99138.75;;;15.34;73.44
50592;BME280;36548;50.506;30.834;2022-09-13T01:05:59;99147.03;;;15.33;73.82
50592;BME280;36548;50.506;30.834;2022-09-13T01:07:16;99142.52;;;15.42;72.99
50592;BME280;36548;50.506;30.834;2022-09-13T01:08:27;99146.48;;;15.29;73.09
50592;BME280;36548;50.506;30.834;2022-09-13T01:09:41;99138.08;;;15.32;72.87
50592;BME280;36548;50.506;30.834;2022-09-13T01:10:59;99142.36;;;15.43;73.07
50592;BME280;36548;50.506;30.834;2022-09-13T01:13:51;99145.41;;;15.22;73.45
50592;BME280;36548;50.506;30.834;2022-09-13T01:15:03;99151.89;;;15.29;73.17
50592;BME280;36548;50.506;30.834;2022-09-13T01:16:19;99143.17;;;15.36;73.13
50592;BME280;36548;50.506;30.834;2022-09-13T01:17:31;99144.26;;;15.25;73.44
50592;BME280;36548;50.506;30.834;2022-09-13T01:18:42;99147.03;;;15.33;73.46
50592;BME280;36548;50.506;30.834;2022-09-13T01:19:52;99147.55;;;15.37;73.48
50592;BME280;36548;50.506;30.834;2022-09-13T01:22:58;99148.19;;;15.30;73.18
50592;BME280;36548;50.506;30.834;2022-09-13T01:25:51;99150.73;;;15.32;73.39
50592;BME280;36548;50.506;30.834;2022-09-13T01:28:32;99153.77;;;15.11;73.70
50592;BME280;36548;50.506;30.834;2022-09-13T01:32:48;99156.63;;;15.09;73.91
50592;BME280;36548;50.506;30.834;2022-09-13T01:49:13;99145.83;;;14.91;75.55
50592;BME280;36548;50.506;30.834;2022-09-13T01:51:49;99145.66;;;14.93;75.51
50592;BME280;36548;50.506;30.834;2022-09-13T01:56:03;99143.52;;;14.96;76.10
50592;BME280;36548;50.506;30.834;2022-09-13T01:57:26;99154.00;;;14.81;75.85
50592;BME280;36548;50.506;30.834;2022-09-13T01:58:45;99144.34;;;14.79;76.11
50592;BME280;36548;50.506;30.834;2022-09-13T02:03:00;99148.29;;;15.03;75.81
50592;BME280;36548;50.506;30.834;2022-09-13T02:04:10;99147.45;;;15.02;75.99
50592;BME280;36548;50.506;30.834;2022-09-13T02:06:52;99143.64;;;14.95;75.30
50592;BME280;36548;50.506;30.834;2022-09-13T02:10:02;99139.70;;;15.07;75.50
50592;BME280;36548;50.506;30.834;2022-09-13T02:11:16;99147.97;;;15.06;75.53
50592;BME280;36548;50.506;30.834;2022-09-13T02:12:36;99142.88;;;15.21;74.95
50592;BME280;36548;50.506;30.834;2022-09-13T02:16:57;99141.88;;;15.22;75.35
50592;BME280;36548;50.506;30.834;2022-09-13T02:18:10;99141.02;;;15.03;74.99
50592;BME280;36548;50.506;30.834;2022-09-13T02:19:39;99145.98;;;15.08;74.44
50592;BME280;36548;50.506;30.834;2022-09-13T02:20:50;99144.66;;;15.12;74.66
50592;BME280;36548;50.506;30.834;2022-09-13T02:22:10;99138.30;;;15.21;74.78
50592;BME280;36548;50.506;30.834;2022-09-13T02:23:24;99150.67;;;15.06;74.15
50592;BME280;36548;50.506;30.834;2022-09-13T02:24:42;99141.57;;;15.07;74.86
50592;BME280;36548;50.506;30.834;2022-09-13T02:25:55;99139.86;;;14.88;74.85
50592;BME280;36548;50.506;30.834;2022-09-13T02:27:15;99136.25;;;14.97;74.96
50592;BME280;36548;50.506;30.834;2022-09-13T02:28:34;99134.46;;;14.88;75.02
50592;BME280;36548;50.506;30.834;2022-09-13T02:29:52;99135.23;;;15.16;75.01
50592;BME280;36548;50.506;30.834;2022-09-13T02:31:04;99139.63;;;14.99;74.50
50592;BME280;36548;50.506;30.834;2022-09-13T02:32:55;99138.70;;;15.08;74.59
50592;BME280;36548;50.506;30.834;2022-09-13T02:34:09;99136.33;;;15.05;74.81
50592;BME280;36548;50.506;30.834;2022-09-13T02:35:33;99128.36;;;15.22;74.86
50592;BME280;36548;50.506;30.834;2022-09-13T02:36:44;99130.00;;;15.14;74.47
50592;BME280;36548;50.506;30.834;2022-09-13T02:38:05;99135.41;;;14.96;74.52
50592;BME280;36548;50.506;30.834;2022-09-13T02:39:22;99133.92;;;15.20;74.25
50592;BME280;36548;50.506;30.834;2022-09-13T02:40:38;99138.63;;;15.00;74.22
50592;BME280;36548;50.506;30.834;2022-09-13T02:44:34;99131.77;;;14.88;75.00
50592;BME280;36548;50.506;30.834;2022-09-13T02:45:47;99136.84;;;14.91;74.96
50592;BME280;36548;50.506;30.834;2022-09-13T02:53:37;99131.92;;;14.86;74.50
50592;BME280;36548;50.506;30.834;2022-09-13T03:00:13;99136.00;;;14.72;75.28
50592;BME280;36548;50.506;30.834;2022-09-13T03:01:28;99129.92;;;14.88;75.57
50592;BME280;36548;50.506;30.834;2022-09-13T03:02:40;99136.16;;;14.71;75.24
50592;BME280;36548;50.506;30.834;2022-09-13T03:03:52;99138.15;;;14.69;75.17
50592;BME280;36548;50.506;30.834;2022-09-13T03:05:10;99132.39;;;14.99;75.63
50592;BME280;36548;50.506;30.834;2022-09-13T03:06:24;99137.91;;;14.62;75.51
50592;BME280;36548;50.506;30.834;2022-09-13T03:07:40;99130.21;;;14.85;75.46
50592;BME280;36548;50.506;30.834;2022-09-13T03:08:52;99130.95;;;14.59;75.81
50592;BME280;36548;50.506;30.834;2022-09-13T03:10:11;99131.68;;;14.79;75.70
50592;BME280;36548;50.506;30.834;2022-09-13T03:13:09;99143.59;;;14.59;76.12
50592;BME280;36548;50.506;30.834;2022-09-13T04:03:23;99158.02;;;14.49;77.35
50592;BME280;36548;50.506;30.834;2022-09-13T04:04:32;99155.91;;;14.15;77.89
50592;BME280;36548;50.506;30.834;2022-09-13T04:05:41;99158.07;;;14.12;78.51
50592;BME280;36548;50.506;30.834;2022-09-13T04:06:52;99158.35;;;14.37;78.02
50592;BME280;36548;50.506;30.834;2022-09-13T04:08:05;99163.01;;;14.17;78.35
50592;BME280;36548;50.506;30.834;2022-09-13T04:09:22;99150.81;;;14.12;78.70
50592;BME280;36548;50.506;30.834;2022-09-13T04:10:33;99162.41;;;14.23;78.65
50592;BME280;36548;50.506;30.834;2022-09-13T04:11:43;99158.02;;;14.22;78.42
50592;BME280;36548;50.506;30.834;2022-09-13T04:12:59;99158.76;;;14.14;78.57
50592;BME280;36548;50.506;30.834;2022-09-13T04:14:09;99155.56;;;14.01;78.91
50592;BME280;36548;50.506;30.834;2022-09-13T04:15:19;99156.31;;;14.21;78.78
50592;BME280;36548;50.506;30.834;2022-09-13T04:16:36;99158.22;;;14.10;78.92
50592;BME280;36548;50.506;30.834;2022-09-13T04:17:45;99160.77;;;14.12;78.79
50592;BME280;36548;50.506;30.834;2022-09-13T04:19:00;99160.88;;;14.20;78.59
50592;BME280;36548;50.506;30.834;2022-09-13T04:20:10;99154.39;;;14.03;78.61
50592;BME280;36548;50.506;30.834;2022-09-13T04:21:19;99160.16;;;13.80;79.57
50592;BME280;36548;50.506;30.834;2022-09-13T04:22:29;99150.20;;;14.19;79.05
50592;BME280;36548;50.506;30.834;2022-09-13T04:23:48;99163.84;;;14.17;78.16
50592;BME280;36548;50.506;30.834;2022-09-13T04:24:59;99164.66;;;14.00;78.58
50592;BME280;36548;50.506;30.834;2022-09-13T04:26:10;99161.39;;;13.96;78.92
50592;BME280;36548;50.506;30.834;2022-09-13T04:27:19;99164.16;;;14.14;78.44
50592;BME280;36548;50.506;30.834;2022-09-13T04:28:30;99168.94;;;13.92;78.62
50592;BME280;36548;50.506;30.834;2022-09-13T04:29:40;99159.90;;;14.11;79.37
50592;BME280;36548;50.506;30.834;2022-09-13T04:30:50;99172.23;;;13.76;79.40
50592;BME280;36548;50.506;30.834;2022-09-13T04:32:06;99166.66;;;13.88;79.18
50592;BME280;36548;50.506;30.834;2022-09-13T04:33:16;99154.55;;;13.54;79.94
50592;BME280;36548;50.506;30.834;2022-09-13T04:34:25;99172.54;;;13.73;79.77
50592;BME280;36548;50.506;30.834;2022-09-13T04:35:41;99162.29;;;13.77;80.24
50592;BME280;36548;50.506;30.834;2022-09-13T04:36:52;99166.58;;;13.70;79.80
50592;BME280;36548;50.506;30.834;2022-09-13T04:38:07;99167.61;;;14.06;79.46
50592;BME280;36548;50.506;30.834;2022-09-13T04:39:16;99158.06;;;13.74;79.01
50592;BME280;36548;50.506;30.834;2022-09-13T04:40:31;99165.29;;;13.74;79.53
50592;BME280;36548;50.506;30.834;2022-09-13T04:41:43;99162.29;;;13.77;79.81
50592;BME280;36548;50.506;30.834;2022-09-13T04:43:02;99173.43;;;14.02;78.85
50592;BME280;36548;50.506;30.834;2022-09-13T04:44:12;99160.84;;;13.92;79.01
50592;BME280;36548;50.506;30.834;2022-09-13T04:45:27;99163.01;;;14.17;78.96
50592;BME280;36548;50.506;30.834;2022-09-13T04:46:37;99175.33;;;13.91;78.91
50592;BME280;36548;50.506;30.834;2022-09-13T04:47:54;99166.30;;;13.63;78.95
50592;BME280;36548;50.506;30.834;2022-09-13T04:49:04;99163.43;;;13.84;78.82
50592;BME280;36548;50.506;30.834;2022-09-13T04:50:14;99161.95;;;14.00;77.58
50592;BME280;36548;50.506;30.834;2022-09-13T04:51:29;99169.20;;;14.27;78.00
50592;BME280;36548;50.506;30.834;2022-09-13T04:52:38;99172.05;;;14.25;77.53
50592;BME280;36548;50.506;30.834;2022-09-13T04:53:52;99172.29;;;14.04;76.99
50592;BME280;36548;50.506;30.834;2022-09-13T04:55:28;99154.30;;;14.23;77.19
50592;BME280;36548;50.506;30.834;2022-09-13T04:56:38;99177.42;;;13.97;77.26
50592;BME280;36548;50.506;30.834;2022-09-13T04:57:51;99180.03;;;13.79;77.64
50592;BME280;36548;50.506;30.834;2022-09-13T04:59:05;99167.05;;;14.03;78.02
50592;BME280;36548;50.506;30.834;2022-09-13T05:00:15;99170.83;;;13.72;78.24
50592;BME280;36548;50.506;30.834;2022-09-13T05:01:30;99168.41;;;13.79;78.50
50592;BME280;36548;50.506;30.834;2022-09-13T05:02:39;99184.81;;;13.38;79.37
50592;BME280;36548;50.506;30.834;2022-09-13T05:03:54;99168.88;;;13.64;79.41
50592;BME280;36548;50.506;30.834;2022-09-13T05:05:05;99176.27;;;13.33;79.46
50592;BME280;36548;50.506;30.834;2022-09-13T05:06:16;99162.94;;;13.51;79.41
50592;BME280;36548;50.506;30.834;2022-09-13T05:07:32;99180.48;;;13.75;78.67
50592;BME280;36548;50.506;30.834;2022-09-13T05:08:40;99170.19;;;13.51;78.44
50592;BME280;36548;50.506;30.834;2022-09-13T05:09:50;99177.42;;;13.40;79.39
50592;BME280;36548;50.506;30.834;2022-09-13T05:11:06;99164.50;;;13.54;79.03
50592;BME280;36548;50.506;30.834;2022-09-13T05:12:16;99176.56;;;13.50;79.18
50592;BME280;36548;50.506;30.834;2022-09-13T05:13:26;99172.99;;;13.29;79.51
50592;BME280;36548;50.506;30.834;2022-09-13T05:14:36;99177.55;;;13.29;79.61
50592;BME280;36548;50.506;30.834;2022-09-13T05:15:46;99177.83;;;13.26;79.26
50592;BME280;36548;50.506;30.834;2022-09-13T05:16:56;99181.66;;;13.53;79.37
50592;BME280;36548;50.506;30.834;2022-09-13T05:18:06;99183.36;;;13.34;78.77
50592;BME280;36548;50.506;30.834;2022-09-13T05:19:16;99180.09;;;13.11;79.93
50592;BME280;36548;50.506;30.834;2022-09-13T05:20:31;99178.70;;;13.36;79.83
50592;BME280;36548;50.506;30.834;2022-09-13T05:21:40;99185.50;;;13.40;79.18
50592;BME280;36548;50.506;30.834;2022-09-13T05:22:57;99177.55;;;13.49;79.36
50592;BME280;36548;50.506;30.834;2022-09-13T05:24:06;99187.89;;;13.24;79.03
50592;BME280;36548;50.506;30.834;2022-09-13T05:25:21;99176.56;;;13.50;78.78
50592;BME280;36548;50.506;30.834;2022-09-13T05:26:32;99182.92;;;13.58;78.25
50592;BME280;36548;50.506;30.834;2022-09-13T05:27:41;99181.62;;;13.72;77.89
50592;BME280;36548;50.506;30.834;2022-09-13T05:28:51;99183.75;;;13.78;77.72
50592;BME280;36548;50.506;30.834;2022-09-13T05:30:00;99183.39;;;13.44;77.87
50592;BME280;36548;50.506;30.834;2022-09-13T05:31:16;99184.66;;;13.50;77.64
50592;BME280;36548;50.506;30.834;2022-09-13T05:32:32;99189.44;;;13.66;77.63
50592;BME280;36548;50.506;30.834;2022-09-13T05:33:41;99194.31;;;13.42;77.57
50592;BME280;36548;50.506;30.834;2022-09-13T05:34:51;99187.49;;;13.48;77.27
50592;BME280;36548;50.506;30.834;2022-09-13T05:36:01;99188.02;;;13.61;77.23
50592;BME280;36548;50.506;30.834;2022-09-13T05:37:10;99179.91;;;13.71;77.41
50592;BME280;36548;50.506;30.834;2022-09-13T05:38:20;99193.39;;;13.71;76.64
50592;BME280;36548;50.506;30.834;2022-09-13T05:39:35;99193.27;;;13.63;76.54
50592;BME280;36548;50.506;30.834;2022-09-13T05:40:47;99195.83;;;13.55;77.00
50592;BME280;36548;50.506;30.834;2022-09-13T05:41:56;99193.27;;;13.34;77.23
50592;BME280;36548;50.506;30.834;2022-09-13T05:43:07;99188.34;;;13.39;77.45
50592;BME280;36548;50.506;30.834;2022-09-13T05:44:15;99202.81;;;13.38;77.36
50592;BME280;36548;50.506;30.834;2022-09-13T05:45:25;99200.37;;;13.15;77.68
50592;BME280;36548;50.506;30.834;2022-09-13T05:46:36;99198.55;;;13.35;77.31
50592;BME280;36548;50.506;30.834;2022-09-13T05:47:49;99195.98;;;13.14;77.45
50592;BME280;36548;50.506;30.834;2022-09-13T05:49:04;99194.41;;;13.31;76.93
50592;BME280;36548;50.506;30.834;2022-09-13T05:50:13;99195.99;;;13.43;76.77
50592;BME280;36548;50.506;30.834;2022-09-13T05:51:29;99199.92;;;13.69;76.01
50592;BME280;36548;50.506;30.834;2022-09-13T05:52:38;99200.34;;;13.74;76.28
50592;BME280;36548;50.506;30.834;2022-09-13T05:53:50;99198.77;;;13.81;75.24
50592;BME280;36548;50.506;30.834;2022-09-13T05:55:06;99200.66;;;13.61;75.53
50592;BME280;36548;50.506;30.834;2022-09-13T05:56:21;99206.88;;;13.71;75.33
50592;BME280;36548;50.506;30.834;2022-09-13T05:57:31;99206.04;;;13.71;75.81
50592;BME280;36548;50.506;30.834;2022-09-13T05:58:44;99211.88;;;13.66;75.18
50592;BME280;36548;50.506;30.834;2022-09-13T05:59:54;99209.14;;;13.86;75.52
50592;BME280;36548;50.506;30.834;2022-09-13T06:01:04;99205.56;;;13.85;74.47
50592;BME280;36548;50.506;30.834;2022-09-13T06:02:13;99206.31;;;13.77;74.42
50592;BME280;36548;50.506;30.834;2022-09-13T06:03:28;99206.95;;;13.99;74.58
50592;BME280;36548;50.506;30.834;2022-09-13T06:04:38;99215.73;;;13.44;75.43
50592;BME280;36548;50.506;30.834;2022-09-13T06:05:48;99215.73;;;13.44;75.50
50592;BME280;36548;50.506;30.834;2022-09-13T06:07:23;99217.02;;;13.40;75.79
50592;BME280;36548;50.506;30.834;2022-09-13T06:08:34;99215.13;;;13.30;75.86
50592;BME280;36548;50.506;30.834;2022-09-13T06:09:43;99212.88;;;13.55;75.34
50592;BME280;36548;50.506;30.834;2022-09-13T06:11:01;99211.58;;;13.69;75.08
50592;BME280;36548;50.506;30.834;2022-09-13T06:12:10;99217.15;;;13.48;75.00
50592;BME280;36548;50.506;30.834;2022-09-13T06:13:20;99223.95;;;13.62;75.17
50592;BME280;36548;50.506;30.834;2022-09-13T06:14:35;99218.80;;;13.69;74.55
50592;BME280;36548;50.506;30.834;2022-09-13T06:15:45;99218.81;;;13.59;74.95
50592;BME280;36548;50.506;30.834;2022-09-13T06:17:01;99224.36;;;13.57;74.90
50592;BME280;36548;50.506;30.834;2022-09-13T06:18:10;99217.56;;;13.43;75.44
50592;BME280;36548;50.506;30.834;2022-09-13T06:19:25;99222.91;;;13.73;74.26
50592;BME280;36548;50.506;30.834;2022-09-13T06:20:35;99216.83;;;13.71;73.80
50592;BME280;36548;50.506;30.834;2022-09-13T06:21:44;99221.23;;;13.72;73.81
50592;BME280;36548;50.506;30.834;2022-09-13T06:22:54;99222.22;;;13.71;73.74
50592;BME280;36548;50.506;30.834;2022-09-13T06:24:05;99214.14;;;13.61;74.21
50592;BME280;36548;50.506;30.834;2022-09-13T06:25:15;99219.67;;;13.69;74.03
50592;BME280;36548;50.506;30.834;2022-09-13T06:26:30;99215.77;;;14.01;74.10
50592;BME280;36548;50.506;30.834;2022-09-13T06:27:40;99218.61;;;14.00;73.65
50592;BME280;36548;50.506;30.834;2022-09-13T06:28:52;99218.55;;;14.19;73.74
50592;BME280;36548;50.506;30.834;2022-09-13T06:30:09;99208.61;;;14.47;73.17
50592;BME280;36548;50.506;30.834;2022-09-13T06:31:23;99218.57;;;14.47;72.99
50592;BME280;36548;50.506;30.834;2022-09-13T06:32:39;99216.63;;;14.67;71.92
50592;BME280;36548;50.506;30.834;2022-09-13T06:33:48;99228.70;;;14.35;71.51
50592;BME280;36548;50.506;30.834;2022-09-13T06:35:04;99214.70;;;14.22;71.67
50592;BME280;36548;50.506;30.834;2022-09-13T06:36:16;99220.10;;;14.22;71.80
50592;BME280;36548;50.506;30.834;2022-09-13T06:37:34;99226.41;;;14.40;71.17
50592;BME280;36548;50.506;30.834;2022-09-13T06:38:45;99229.00;;;14.32;71.84
50592;BME280;36548;50.506;30.834;2022-09-13T06:40:01;99231.23;;;14.46;71.31
50592;BME280;36548;50.506;30.834;2022-09-13T06:41:14;99234.84;;;13.80;71.91
50592;BME280;36548;50.506;30.834;2022-09-13T06:42:27;99240.53;;;13.57;73.30
50592;BME280;36548;50.506;30.834;2022-09-13T06:43:39;99247.33;;;13.71;73.15
50592;BME280;36548;50.506;30.834;2022-09-13T06:44:48;99235.69;;;13.80;72.58
50592;BME280;36548;50.506;30.834;2022-09-13T06:46:08;99234.80;;;14.00;72.18
50592;BME280;36548;50.506;30.834;2022-09-13T06:47:18;99238.79;;;13.95;71.86
50592;BME280;36548;50.506;30.834;2022-09-13T06:48:36;99234.20;;;14.06;71.92
50592;BME280;36548;50.506;30.834;2022-09-13T06:49:46;99234.59;;;14.21;71.86
50592;BME280;36548;50.506;30.834;2022-09-13T06:50:58;99233.91;;;14.09;71.71
50592;BME280;36548;50.506;30.834;2022-09-13T06:52:07;99237.29;;;14.21;71.53
50592;BME280;36548;50.506;30.834;2022-09-13T06:53:22;99230.03;;;14.21;71.53
50592;BME280;36548;50.506;30.834;2022-09-13T06:54:31;99236.72;;;14.17;71.38
50592;BME280;36548;50.506;30.834;2022-09-13T06:55:40;99227.89;;;13.77;72.18
50592;BME280;36548;50.506;30.834;2022-09-13T06:56:49;99232.94;;;14.00;72.27
50592;BME280;36548;50.506;30.834;2022-09-13T06:57:59;99238.22;;;13.92;71.88
50592;BME280;36548;50.506;30.834;2022-09-13T06:59:09;99244.62;;;13.81;71.86
50592;BME280;36548;50.506;30.834;2022-09-13T07:00:20;99241.06;;;13.90;71.86
50592;BME280;36548;50.506;30.834;2022-09-13T07:01:33;99244.05;;;13.87;72.07
50592;BME280;36548;50.506;30.834;2022-09-13T07:02:50;99225.12;;;14.07;71.85
50592;BME280;36548;50.506;30.834;2022-09-13T07:04:04;99241.88;;;14.10;71.43
50592;BME280;36548;50.506;30.834;2022-09-13T07:05:21;99229.38;;;14.47;70.93
50592;BME280;36548;50.506;30.834;2022-09-13T07:06:34;99236.45;;;14.20;71.01
50592;BME280;36548;50.506;30.834;2022-09-13T07:07:49;99244.89;;;14.35;70.09
50592;BME280;36548;50.506;30.834;2022-09-13T07:09:00;99229.22;;;14.11;70.72
50592;BME280;36548;50.506;30.834;2022-09-13T07:10:09;99236.37;;;14.40;70.61
50592;BME280;36548;50.506;30.834;2022-09-13T07:11:28;99232.56;;;14.70;70.38
50592;BME280;36548;50.506;30.834;2022-09-13T07:12:39;99233.55;;;14.69;70.30
50592;BME280;36548;50.506;30.834;2022-09-13T07:13:56;99238.09;;;14.69;69.95
50592;BME280;36548;50.506;30.834;2022-09-13T07:15:06;99248.83;;;14.51;70.00
50592;BME280;36548;50.506;30.834;2022-09-13T07:16:18;99247.90;;;14.70;69.70
50592;BME280;36548;50.506;30.834;2022-09-13T07:17:28;99250.66;;;14.50;69.33
50592;BME280;36548;50.506;30.834;2022-09-13T07:18:39;99250.92;;;14.57;69.68
50592;BME280;36548;50.506;30.834;2022-09-13T07:19:54;99247.81;;;14.52;70.05
50592;BME280;36548;50.506;30.834;2022-09-13T07:21:05;99246.06;;;14.32;70.32
50592;BME280;36548;50.506;30.834;2022-09-13T07:22:15;99248.31;;;14.37;70.43
50592;BME280;36548;50.506;30.834;2022-09-13T07:23:24;99254.17;;;14.32;70.87
50592;BME280;36548;50.506;30.834;2022-09-13T07:24:32;99245.95;;;14.24;70.56
50592;BME280;36548;50.506;30.834;2022-09-13T07:25:54;99246.41;;;14.47;70.75
50592;BME280;36548;50.506;30.834;2022-09-13T07:27:05;99242.45;;;14.42;70.67
50592;BME280;36548;50.506;30.834;2022-09-13T07:28:14;99254.95;;;14.05;70.80
50592;BME280;36548;50.506;30.834;2022-09-13T07:29:29;99243.31;;;13.95;72.19
50592;BME280;36548;50.506;30.834;2022-09-13T07:30:39;99249.88;;;13.92;71.83
50592;BME280;36548;50.506;30.834;2022-09-13T07:31:51;99244.91;;;13.78;72.17
50592;BME280;36548;50.506;30.834;2022-09-13T07:33:04;99247.99;;;14.03;71.82
50592;BME280;36548;50.506;30.834;2022-09-13T07:34:19;99243.83;;;14.18;71.34
50592;BME280;36548;50.506;30.834;2022-09-13T07:35:35;99235.80;;;14.36;71.05
50592;BME280;36548;50.506;30.834;2022-09-13T07:36:44;99239.03;;;14.12;70.94
50592;BME280;36548;50.506;30.834;2022-09-13T07:38:00;99240.36;;;14.36;71.05
50592;BME280;36548;50.506;30.834;2022-09-13T07:39:09;99244.48;;;13.92;71.35
50592;BME280;36548;50.506;30.834;2022-09-13T07:40:21;99242.80;;;14.29;71.60
50592;BME280;36548;50.506;30.834;2022-09-13T07:41:35;99236.64;;;14.37;70.78
50592;BME280;36548;50.506;30.834;2022-09-13T07:42:44;99242.69;;;14.21;70.95
50592;BME280;36548;50.506;30.834;2022-09-13T07:43:54;99241.96;;;14.28;70.79
50592;BME280;36548;50.506;30.834;2022-09-13T07:45:04;99240.36;;;14.36;70.57
50592;BME280;36548;50.506;30.834;2022-09-13T07:46:22;99238.23;;;14.67;70.57
50592;BME280;36548;50.506;30.834;2022-09-13T07:47:32;99242.83;;;14.57;69.97
50592;BME280;36548;50.506;30.834;2022-09-13T07:48:43;99246.41;;;14.47;69.55
50592;BME280;36548;50.506;30.834;2022-09-13T07:49:53;99243.81;;;14.56;70.54
50592;BME280;36548;50.506;30.834;2022-09-13T07:51:13;99222.44;;;14.72;69.77
50592;BME280;36548;50.506;30.834;2022-09-13T07:52:22;99242.88;;;14.47;69.70
50592;BME280;36548;50.506;30.834;2022-09-13T07:53:33;99244.47;;;14.40;70.13
50592;BME280;36548;50.506;30.834;2022-09-13T07:54:49;99240.81;;;14.59;70.65
50592;BME280;36548;50.506;30.834;2022-09-13T07:56:04;99236.75;;;14.45;70.54
50592;BME280;36548;50.506;30.834;2022-09-13T07:57:19;99237.52;;;14.37;70.89
50592;BME280;36548;50.506;30.834;2022-09-13T07:58:28;99236.83;;;14.25;70.89
50592;BME280;36548;50.506;30.834;2022-09-13T07:59:39;99231.59;;;14.24;70.82
50592;BME280;36548;50.506;30.834;2022-09-13T08:00:57;99228.80;;;14.43;70.83
50592;BME280;36548;50.506;30.834;2022-09-13T08:02:08;99234.81;;;14.37;70.80
50592;BME280;36548;50.506;30.834;2022-09-13T08:03:23;99234.20;;;14.43;70.06
50592;BME280;36548;50.506;30.834;2022-09-13T08:04:32;99231.66;;;14.42;70.38
50592;BME280;36548;50.506;30.834;2022-09-13T08:05:43;99234.28;;;14.24;70.30
50592;BME280;36548;50.506;30.834;2022-09-13T08:06:52;99240.90;;;14.39;70.33
50592;BME280;36548;50.506;30.834;2022-09-13T08:08:02;99234.85;;;14.27;70.50
50592;BME280;36548;50.506;30.834;2022-09-13T08:09:18;99234.46;;;14.50;70.47